sensor_id;sensor_type;location;lat;lon;timestamp;temperature;humidity
28614;DHT22;15806;53.548;9.964;2023-01-26T00:00:30;3.70;99.90
28614;DHT22;15806;53.548;9.964;2023-01-26T00:02:10;3.60;99.90
28614;DHT22;15806;53.548;9.964;2023-01-26T00:03:51;3.70;99.90
28614;DHT22;15806;53.548;9.964;2023-01-26T00:05:31;3.70;99.90
28614;DHT22;15806;53.548;9.964;2023-01-26T00:07:12;3.70;99.90
28614;DHT22;15806;53.548;9.964;2023-01-26T00:08:53;3.70;99.90
28614;DHT22;15806;53.548;9.964;2023-01-26T00:10:35;3.70;99.90
28614;DHT22;15806;53.548;9.964;2023-01-26T00:12:16;3.80;99.90
28614;DHT22;15806;53.548;9.964;2023-01-26T00:13:58;3.80;99.90
28614;DHT22;15806;53.548;9.964;2023-01-26T00:15:39;3.80;99.90
28614;DHT22;15806;53.548;9.964;2023-01-26T00:17:21;3.70;99.90
28614;DHT22;15806;53.548;9.964;2023-01-26T00:19:02;3.80;99.90
28614;DHT22;15806;53.548;9.964;2023-01-26T00:20:42;3.80;99.90
28614;DHT22;15806;53.548;9.964;2023-01-26T00:22:25;3.80;99.90
28614;DHT22;15806;53.548;9.964;2023-01-26T00:24:06;3.80;99.90
28614;DHT22;15806;53.548;9.964;2023-01-26T00:25:46;3.90;99.90
28614;DHT22;15806;53.548;9.964;2023-01-26T00:27:27;3.90;99.90
28614;DHT22;15806;53.548;9.964;2023-01-26T00:29:07;3.80;99.90
28614;DHT22;15806;53.548;9.964;2023-01-26T00:30:48;3.90;99.90
28614;DHT22;15806;53.548;9.964;2023-01-26T00:32:29;3.90;99.90
28614;DHT22;15806;53.548;9.964;2023-01-26T00:34:09;3.90;99.90
28614;DHT22;15806;53.548;9.964;2023-01-26T00:35:53;3.90;99.90
28614;DHT22;15806;53.548;9.964;2023-01-26T00:37:34;3.80;99.90
28614;DHT22;15806;53.548;9.964;2023-01-26T00:39:14;3.70;99.90
28614;DHT22;15806;53.548;9.964;2023-01-26T00:40:55;3.70;99.90
28614;DHT22;15806;53.548;9.964;2023-01-26T00:42:35;3.70;99.90
28614;DHT22;15806;53.548;9.964;2023-01-26T00:44:16;3.90;99.90
28614;DHT22;15806;53.548;9.964;2023-01-26T00:45:56;3.90;99.90
28614;DHT22;15806;53.548;9.964;2023-01-26T00:47:37;3.90;99.90
28614;DHT22;15806;53.548;9.964;2023-01-26T00:49:17;3.90;99.90
28614;DHT22;15806;53.548;9.964;2023-01-26T00:50:58;3.90;99.90
28614;DHT22;15806;53.548;9.964;2023-01-26T00:52:38;3.90;99.90
28614;DHT22;15806;53.548;9.964;2023-01-26T00:54:19;4.00;99.90
28614;DHT22;15806;53.548;9.964;2023-01-26T00:55:59;4.00;99.90
28614;DHT22;15806;53.548;9.964;2023-01-26T00:57:40;3.90;99.90
28614;DHT22;15806;53.548;9.964;2023-01-26T00:59:21;4.00;99.90
28614;DHT22;15806;53.548;9.964;2023-01-26T01:01:02;4.00;99.90
28614;DHT22;15806;53.548;9.964;2023-01-26T01:02:43;4.00;99.90
28614;DHT22;15806;53.548;9.964;2023-01-26T01:04:24;4.00;99.90
28614;DHT22;15806;53.548;9.964;2023-01-26T01:06:04;4.10;99.90
28614;DHT22;15806;53.548;9.964;2023-01-26T01:07:45;4.10;99.90
28614;DHT22;15806;53.548;9.964;2023-01-26T01:09:25;4.10;99.90
28614;DHT22;15806;53.548;9.964;2023-01-26T01:11:08;4.10;99.90
28614;DHT22;15806;53.548;9.964;2023-01-26T01:12:49;4.10;99.90
28614;DHT22;15806;53.548;9.964;2023-01-26T01:14:30;4.20;99.90
28614;DHT22;15806;53.548;9.964;2023-01-26T01:16:12;4.10;99.90
28614;DHT22;15806;53.548;9.964;2023-01-26T01:17:53;4.20;99.90
28614;DHT22;15806;53.548;9.964;2023-01-26T01:19:33;4.20;99.90
28614;DHT22;15806;53.548;9.964;2023-01-26T01:21:16;4.20;99.90
28614;DHT22;15806;53.548;9.964;2023-01-26T01:22:56;4.30;99.90
28614;DHT22;15806;53.548;9.964;2023-01-26T01:24:37;4.40;99.90
28614;DHT22;15806;53.548;9.964;2023-01-26T01:26:17;4.30;99.90
28614;DHT22;15806;53.548;9.964;2023-01-26T01:27:58;4.30;99.90
28614;DHT22;15806;53.548;9.964;2023-01-26T01:29:38;4.40;99.90
28614;DHT22;15806;53.548;9.964;2023-01-26T01:31:19;4.30;99.90
28614;DHT22;15806;53.548;9.964;2023-01-26T01:32:59;4.40;99.90
28614;DHT22;15806;53.548;9.964;2023-01-26T01:34:40;4.30;99.90
28614;DHT22;15806;53.548;9.964;2023-01-26T01:36:21;4.40;99.90
28614;DHT22;15806;53.548;9.964;2023-01-26T01:38:02;4.40;99.90
28614;DHT22;15806;53.548;9.964;2023-01-26T01:39:42;4.50;99.90
28614;DHT22;15806;53.548;9.964;2023-01-26T01:41:23;4.40;99.90
28614;DHT22;15806;53.548;9.964;2023-01-26T01:43:10;4.30;99.90
28614;DHT22;15806;53.548;9.964;2023-01-26T01:47:03;4.40;99.90
28614;DHT22;15806;53.548;9.964;2023-01-26T01:50:36;4.50;99.90
28614;DHT22;15806;53.548;9.964;2023-01-26T01:52:27;4.40;99.90
28614;DHT22;15806;53.548;9.964;2023-01-26T01:54:11;4.50;99.90
28614;DHT22;15806;53.548;9.964;2023-01-26T01:55:59;4.60;99.90
28614;DHT22;15806;53.548;9.964;2023-01-26T01:57:57;4.60;99.90
28614;DHT22;15806;53.548;9.964;2023-01-26T01:59:38;4.50;99.90
28614;DHT22;15806;53.548;9.964;2023-01-26T02:01:19;4.50;99.90
28614;DHT22;15806;53.548;9.964;2023-01-26T02:03:06;4.50;99.90
28614;DHT22;15806;53.548;9.964;2023-01-26T02:04:47;4.50;99.90
28614;DHT22;15806;53.548;9.964;2023-01-26T02:06:34;4.50;99.90
28614;DHT22;15806;53.548;9.964;2023-01-26T02:08:17;4.50;99.90
28614;DHT22;15806;53.548;9.964;2023-01-26T02:09:58;4.50;99.90
28614;DHT22;15806;53.548;9.964;2023-01-26T02:11:42;4.60;99.90
28614;DHT22;15806;53.548;9.964;2023-01-26T02:13:23;4.60;99.90
28614;DHT22;15806;53.548;9.964;2023-01-26T02:15:05;4.60;99.90
28614;DHT22;15806;53.548;9.964;2023-01-26T02:16:46;4.60;99.90
28614;DHT22;15806;53.548;9.964;2023-01-26T02:18:27;4.60;99.90
28614;DHT22;15806;53.548;9.964;2023-01-26T02:22:09;4.60;99.90
28614;DHT22;15806;53.548;9.964;2023-01-26T02:26:20;4.70;99.90
28614;DHT22;15806;53.548;9.964;2023-01-26T02:28:01;4.60;99.90
28614;DHT22;15806;53.548;9.964;2023-01-26T02:29:42;4.60;99.90
28614;DHT22;15806;53.548;9.964;2023-01-26T02:31:23;4.60;99.90
28614;DHT22;15806;53.548;9.964;2023-01-26T02:33:04;4.70;99.90
28614;DHT22;15806;53.548;9.964;2023-01-26T02:34:45;4.60;99.90
28614;DHT22;15806;53.548;9.964;2023-01-26T02:36:28;4.70;99.90
28614;DHT22;15806;53.548;9.964;2023-01-26T02:38:09;4.60;99.90
28614;DHT22;15806;53.548;9.964;2023-01-26T02:39:57;4.70;99.90
28614;DHT22;15806;53.548;9.964;2023-01-26T02:41:39;4.70;99.90
28614;DHT22;15806;53.548;9.964;2023-01-26T02:43:23;4.70;99.90
28614;DHT22;15806;53.548;9.964;2023-01-26T02:45:06;4.90;99.90
28614;DHT22;15806;53.548;9.964;2023-01-26T02:46:47;5.00;99.90
28614;DHT22;15806;53.548;9.964;2023-01-26T02:48:28;4.90;99.90
28614;DHT22;15806;53.548;9.964;2023-01-26T02:50:09;4.80;99.90
28614;DHT22;15806;53.548;9.964;2023-01-26T02:51:50;4.80;99.90
28614;DHT22;15806;53.548;9.964;2023-01-26T02:53:30;4.90;99.90
28614;DHT22;15806;53.548;9.964;2023-01-26T02:55:11;5.00;99.90
28614;DHT22;15806;53.548;9.964;2023-01-26T02:56:52;4.80;99.90
28614;DHT22;15806;53.548;9.964;2023-01-26T02:58:32;4.80;99.90
28614;DHT22;15806;53.548;9.964;2023-01-26T03:00:33;4.90;99.90
28614;DHT22;15806;53.548;9.964;2023-01-26T03:02:14;4.90;99.90
28614;DHT22;15806;53.548;9.964;2023-01-26T03:03:55;5.00;99.90
28614;DHT22;15806;53.548;9.964;2023-01-26T03:05:35;5.10;99.90
28614;DHT22;15806;53.548;9.964;2023-01-26T03:07:15;5.10;99.90
28614;DHT22;15806;53.548;9.964;2023-01-26T03:08:56;5.00;99.90
28614;DHT22;15806;53.548;9.964;2023-01-26T03:10:37;5.10;99.90
28614;DHT22;15806;53.548;9.964;2023-01-26T03:12:18;5.00;99.90
28614;DHT22;15806;53.548;9.964;2023-01-26T03:13:58;5.10;99.90
28614;DHT22;15806;53.548;9.964;2023-01-26T03:15:39;5.20;99.90
28614;DHT22;15806;53.548;9.964;2023-01-26T03:17:20;5.30;99.90
28614;DHT22;15806;53.548;9.964;2023-01-26T03:19:00;5.20;99.90
28614;DHT22;15806;53.548;9.964;2023-01-26T03:20:41;5.30;99.90
28614;DHT22;15806;53.548;9.964;2023-01-26T03:22:21;5.20;99.90
28614;DHT22;15806;53.548;9.964;2023-01-26T03:24:03;5.30;99.90
28614;DHT22;15806;53.548;9.964;2023-01-26T03:25:43;5.30;99.90
28614;DHT22;15806;53.548;9.964;2023-01-26T03:27:24;5.30;99.90
28614;DHT22;15806;53.548;9.964;2023-01-26T03:29:04;5.00;99.90
28614;DHT22;15806;53.548;9.964;2023-01-26T03:30:49;5.10;99.90
28614;DHT22;15806;53.548;9.964;2023-01-26T03:32:42;5.10;99.90
28614;DHT22;15806;53.548;9.964;2023-01-26T03:34:23;4.90;99.90
28614;DHT22;15806;53.548;9.964;2023-01-26T03:36:04;5.10;99.90
28614;DHT22;15806;53.548;9.964;2023-01-26T03:37:45;5.10;99.90
28614;DHT22;15806;53.548;9.964;2023-01-26T03:39:25;5.20;99.90
28614;DHT22;15806;53.548;9.964;2023-01-26T03:41:06;5.10;99.90
28614;DHT22;15806;53.548;9.964;2023-01-26T03:42:46;5.00;99.90
28614;DHT22;15806;53.548;9.964;2023-01-26T03:44:27;5.10;99.90
28614;DHT22;15806;53.548;9.964;2023-01-26T03:46:08;5.10;99.90
28614;DHT22;15806;53.548;9.964;2023-01-26T03:47:48;5.00;99.90
28614;DHT22;15806;53.548;9.964;2023-01-26T03:49:29;5.10;99.90
28614;DHT22;15806;53.548;9.964;2023-01-26T03:51:09;5.00;99.90
28614;DHT22;15806;53.548;9.964;2023-01-26T03:52:50;5.10;99.90
28614;DHT22;15806;53.548;9.964;2023-01-26T03:54:30;5.00;99.90
28614;DHT22;15806;53.548;9.964;2023-01-26T03:56:11;5.20;99.90
28614;DHT22;15806;53.548;9.964;2023-01-26T03:57:51;5.20;99.90
28614;DHT22;15806;53.548;9.964;2023-01-26T03:59:32;5.10;99.90
28614;DHT22;15806;53.548;9.964;2023-01-26T04:01:12;5.10;99.90
28614;DHT22;15806;53.548;9.964;2023-01-26T04:02:53;5.20;99.90
28614;DHT22;15806;53.548;9.964;2023-01-26T04:04:33;5.20;99.90
28614;DHT22;15806;53.548;9.964;2023-01-26T04:06:14;5.30;99.90
28614;DHT22;15806;53.548;9.964;2023-01-26T04:08:01;5.10;99.90
28614;DHT22;15806;53.548;9.964;2023-01-26T04:09:41;5.20;99.90
28614;DHT22;15806;53.548;9.964;2023-01-26T04:11:22;5.20;99.90
28614;DHT22;15806;53.548;9.964;2023-01-26T04:13:03;5.00;99.90
28614;DHT22;15806;53.548;9.964;2023-01-26T04:14:43;5.20;99.90
28614;DHT22;15806;53.548;9.964;2023-01-26T04:16:24;5.40;99.90
28614;DHT22;15806;53.548;9.964;2023-01-26T04:18:06;5.40;99.90
28614;DHT22;15806;53.548;9.964;2023-01-26T04:19:47;5.30;99.90
28614;DHT22;15806;53.548;9.964;2023-01-26T04:21:28;5.30;99.90
28614;DHT22;15806;53.548;9.964;2023-01-26T04:23:19;5.30;99.90
28614;DHT22;15806;53.548;9.964;2023-01-26T04:24:59;5.50;99.90
28614;DHT22;15806;53.548;9.964;2023-01-26T04:26:41;5.50;99.90
28614;DHT22;15806;53.548;9.964;2023-01-26T04:28:22;5.40;99.90
28614;DHT22;15806;53.548;9.964;2023-01-26T04:30:03;5.40;99.90
28614;DHT22;15806;53.548;9.964;2023-01-26T04:31:44;5.30;99.90
28614;DHT22;15806;53.548;9.964;2023-01-26T04:33:24;5.30;99.90
28614;DHT22;15806;53.548;9.964;2023-01-26T04:35:06;5.40;99.90
28614;DHT22;15806;53.548;9.964;2023-01-26T04:36:46;5.30;99.90
28614;DHT22;15806;53.548;9.964;2023-01-26T04:38:27;5.30;99.90
28614;DHT22;15806;53.548;9.964;2023-01-26T04:40:08;5.30;99.90
28614;DHT22;15806;53.548;9.964;2023-01-26T04:41:49;5.40;99.90
28614;DHT22;15806;53.548;9.964;2023-01-26T04:43:30;5.50;99.90
28614;DHT22;15806;53.548;9.964;2023-01-26T04:45:10;5.40;99.90
28614;DHT22;15806;53.548;9.964;2023-01-26T04:46:51;5.40;99.90
28614;DHT22;15806;53.548;9.964;2023-01-26T04:48:32;5.40;99.90
28614;DHT22;15806;53.548;9.964;2023-01-26T04:50:13;5.50;99.90
28614;DHT22;15806;53.548;9.964;2023-01-26T04:51:53;5.40;99.90
28614;DHT22;15806;53.548;9.964;2023-01-26T04:53:34;5.50;99.90
28614;DHT22;15806;53.548;9.964;2023-01-26T04:55:14;5.60;99.90
28614;DHT22;15806;53.548;9.964;2023-01-26T04:56:55;5.40;99.90
28614;DHT22;15806;53.548;9.964;2023-01-26T04:58:36;5.40;99.90
28614;DHT22;15806;53.548;9.964;2023-01-26T05:00:17;5.40;99.90
28614;DHT22;15806;53.548;9.964;2023-01-26T05:01:57;5.50;99.90
28614;DHT22;15806;53.548;9.964;2023-01-26T05:03:38;5.60;99.90
28614;DHT22;15806;53.548;9.964;2023-01-26T05:05:19;5.40;99.90
28614;DHT22;15806;53.548;9.964;2023-01-26T05:06:59;5.50;99.90
28614;DHT22;15806;53.548;9.964;2023-01-26T05:08:40;5.70;99.90
28614;DHT22;15806;53.548;9.964;2023-01-26T05:10:20;5.50;99.90
28614;DHT22;15806;53.548;9.964;2023-01-26T05:12:01;5.50;99.90
28614;DHT22;15806;53.548;9.964;2023-01-26T05:13:48;5.50;99.90
28614;DHT22;15806;53.548;9.964;2023-01-26T05:15:29;5.50;99.90
28614;DHT22;15806;53.548;9.964;2023-01-26T05:17:09;5.60;99.90
28614;DHT22;15806;53.548;9.964;2023-01-26T05:18:50;5.70;99.90
28614;DHT22;15806;53.548;9.964;2023-01-26T05:20:31;5.60;99.90
28614;DHT22;15806;53.548;9.964;2023-01-26T05:22:11;5.70;99.90
28614;DHT22;15806;53.548;9.964;2023-01-26T05:23:53;5.70;99.90
28614;DHT22;15806;53.548;9.964;2023-01-26T05:25:33;5.80;99.90
28614;DHT22;15806;53.548;9.964;2023-01-26T05:27:14;5.80;99.90
28614;DHT22;15806;53.548;9.964;2023-01-26T05:28:54;5.80;99.90
28614;DHT22;15806;53.548;9.964;2023-01-26T05:30:35;5.70;99.90
28614;DHT22;15806;53.548;9.964;2023-01-26T05:32:15;5.70;99.90
28614;DHT22;15806;53.548;9.964;2023-01-26T05:33:56;5.60;99.90
28614;DHT22;15806;53.548;9.964;2023-01-26T05:35:36;5.70;99.90
28614;DHT22;15806;53.548;9.964;2023-01-26T05:37:17;5.60;99.90
28614;DHT22;15806;53.548;9.964;2023-01-26T05:38:58;5.60;99.90
28614;DHT22;15806;53.548;9.964;2023-01-26T05:40:38;5.80;99.90
28614;DHT22;15806;53.548;9.964;2023-01-26T05:42:19;5.90;99.90
28614;DHT22;15806;53.548;9.964;2023-01-26T05:44:00;5.80;99.90
28614;DHT22;15806;53.548;9.964;2023-01-26T05:45:40;5.70;99.90
28614;DHT22;15806;53.548;9.964;2023-01-26T05:47:21;5.80;99.90
28614;DHT22;15806;53.548;9.964;2023-01-26T05:49:01;5.80;99.90
28614;DHT22;15806;53.548;9.964;2023-01-26T05:50:42;5.70;99.90
28614;DHT22;15806;53.548;9.964;2023-01-26T05:52:22;5.80;99.90
28614;DHT22;15806;53.548;9.964;2023-01-26T05:54:03;5.70;99.90
28614;DHT22;15806;53.548;9.964;2023-01-26T05:55:44;5.80;99.90
28614;DHT22;15806;53.548;9.964;2023-01-26T05:57:24;5.80;99.90
28614;DHT22;15806;53.548;9.964;2023-01-26T05:59:05;5.70;99.90
28614;DHT22;15806;53.548;9.964;2023-01-26T06:00:45;5.80;99.90
28614;DHT22;15806;53.548;9.964;2023-01-26T06:02:26;5.80;99.90
28614;DHT22;15806;53.548;9.964;2023-01-26T06:04:06;5.90;99.90
28614;DHT22;15806;53.548;9.964;2023-01-26T06:05:52;5.70;99.90
28614;DHT22;15806;53.548;9.964;2023-01-26T06:07:33;5.90;99.90
28614;DHT22;15806;53.548;9.964;2023-01-26T06:09:13;5.80;99.90
28614;DHT22;15806;53.548;9.964;2023-01-26T06:10:58;5.70;99.90
28614;DHT22;15806;53.548;9.964;2023-01-26T06:12:39;5.60;99.90
28614;DHT22;15806;53.548;9.964;2023-01-26T06:14:19;5.80;99.90
28614;DHT22;15806;53.548;9.964;2023-01-26T06:16:00;5.80;99.90
28614;DHT22;15806;53.548;9.964;2023-01-26T06:17:41;5.90;99.90
28614;DHT22;15806;53.548;9.964;2023-01-26T06:19:21;5.80;99.90
28614;DHT22;15806;53.548;9.964;2023-01-26T06:21:02;5.70;99.90
28614;DHT22;15806;53.548;9.964;2023-01-26T06:22:42;5.60;99.90
28614;DHT22;15806;53.548;9.964;2023-01-26T06:24:23;5.80;99.90
28614;DHT22;15806;53.548;9.964;2023-01-26T06:26:03;5.70;99.90
28614;DHT22;15806;53.548;9.964;2023-01-26T06:27:44;5.70;99.90
28614;DHT22;15806;53.548;9.964;2023-01-26T06:29:25;5.70;99.90
28614;DHT22;15806;53.548;9.964;2023-01-26T06:31:07;5.70;99.90
28614;DHT22;15806;53.548;9.964;2023-01-26T06:32:47;5.80;99.90
28614;DHT22;15806;53.548;9.964;2023-01-26T06:34:28;5.60;99.90
28614;DHT22;15806;53.548;9.964;2023-01-26T06:36:13;5.80;99.90
28614;DHT22;15806;53.548;9.964;2023-01-26T06:37:54;5.80;99.90
28614;DHT22;15806;53.548;9.964;2023-01-26T06:39:34;5.70;99.90
28614;DHT22;15806;53.548;9.964;2023-01-26T06:41:15;5.70;99.90
28614;DHT22;15806;53.548;9.964;2023-01-26T06:42:56;5.80;99.90
28614;DHT22;15806;53.548;9.964;2023-01-26T06:44:36;5.70;99.90
28614;DHT22;15806;53.548;9.964;2023-01-26T06:46:17;5.80;99.90
28614;DHT22;15806;53.548;9.964;2023-01-26T06:47:58;5.80;99.90
28614;DHT22;15806;53.548;9.964;2023-01-26T06:49:38;5.80;99.90
28614;DHT22;15806;53.548;9.964;2023-01-26T06:53:02;5.80;99.90
28614;DHT22;15806;53.548;9.964;2023-01-26T06:54:43;5.80;99.90
28614;DHT22;15806;53.548;9.964;2023-01-26T06:56:24;5.80;99.90
28614;DHT22;15806;53.548;9.964;2023-01-26T06:58:04;5.80;99.90
28614;DHT22;15806;53.548;9.964;2023-01-26T06:59:45;5.70;99.90
28614;DHT22;15806;53.548;9.964;2023-01-26T07:01:25;5.80;99.90
28614;DHT22;15806;53.548;9.964;2023-01-26T07:03:08;5.80;99.90
28614;DHT22;15806;53.548;9.964;2023-01-26T07:04:49;5.80;99.90
28614;DHT22;15806;53.548;9.964;2023-01-26T07:06:30;5.70;99.90
28614;DHT22;15806;53.548;9.964;2023-01-26T07:08:10;5.70;99.90
28614;DHT22;15806;53.548;9.964;2023-01-26T07:09:51;5.80;99.90
28614;DHT22;15806;53.548;9.964;2023-01-26T07:11:31;5.80;99.90
28614;DHT22;15806;53.548;9.964;2023-01-26T07:13:12;5.80;99.90
28614;DHT22;15806;53.548;9.964;2023-01-26T07:14:52;5.80;99.90
28614;DHT22;15806;53.548;9.964;2023-01-26T07:16:33;5.70;99.90
28614;DHT22;15806;53.548;9.964;2023-01-26T07:18:14;5.70;99.90
28614;DHT22;15806;53.548;9.964;2023-01-26T07:19:55;5.70;99.90
28614;DHT22;15806;53.548;9.964;2023-01-26T07:21:35;5.70;99.90
28614;DHT22;15806;53.548;9.964;2023-01-26T07:23:16;5.80;99.90
28614;DHT22;15806;53.548;9.964;2023-01-26T07:24:56;5.80;99.90
28614;DHT22;15806;53.548;9.964;2023-01-26T07:26:37;5.80;99.90
28614;DHT22;15806;53.548;9.964;2023-01-26T07:28:17;5.90;99.90
28614;DHT22;15806;53.548;9.964;2023-01-26T07:29:58;5.80;99.90
28614;DHT22;15806;53.548;9.964;2023-01-26T07:31:38;5.90;99.90
28614;DHT22;15806;53.548;9.964;2023-01-26T07:33:19;5.90;99.90
28614;DHT22;15806;53.548;9.964;2023-01-26T07:34:59;5.90;99.90
28614;DHT22;15806;53.548;9.964;2023-01-26T07:36:40;5.80;99.90
28614;DHT22;15806;53.548;9.964;2023-01-26T07:38:21;6.00;99.90
28614;DHT22;15806;53.548;9.964;2023-01-26T07:40:02;5.90;99.90
28614;DHT22;15806;53.548;9.964;2023-01-26T07:41:42;6.00;99.90
28614;DHT22;15806;53.548;9.964;2023-01-26T07:43:23;5.80;99.90
28614;DHT22;15806;53.548;9.964;2023-01-26T07:45:04;6.00;99.90
28614;DHT22;15806;53.548;9.964;2023-01-26T07:46:45;5.80;99.90
28614;DHT22;15806;53.548;9.964;2023-01-26T07:48:25;6.00;99.90
28614;DHT22;15806;53.548;9.964;2023-01-26T07:50:06;5.90;99.90
28614;DHT22;15806;53.548;9.964;2023-01-26T07:51:47;5.80;99.90
28614;DHT22;15806;53.548;9.964;2023-01-26T07:53:28;5.90;99.90
28614;DHT22;15806;53.548;9.964;2023-01-26T07:55:09;5.90;99.90
28614;DHT22;15806;53.548;9.964;2023-01-26T07:56:53;6.00;99.90
28614;DHT22;15806;53.548;9.964;2023-01-26T07:58:34;5.90;99.90
28614;DHT22;15806;53.548;9.964;2023-01-26T08:00:15;6.00;99.90
28614;DHT22;15806;53.548;9.964;2023-01-26T08:01:56;6.00;99.90
28614;DHT22;15806;53.548;9.964;2023-01-26T08:03:37;6.00;99.90
28614;DHT22;15806;53.548;9.964;2023-01-26T08:05:17;6.00;99.90
28614;DHT22;15806;53.548;9.964;2023-01-26T08:06:58;6.10;99.90
28614;DHT22;15806;53.548;9.964;2023-01-26T08:08:39;6.20;99.90
28614;DHT22;15806;53.548;9.964;2023-01-26T08:10:20;6.00;99.90
28614;DHT22;15806;53.548;9.964;2023-01-26T08:12:00;6.00;99.90
28614;DHT22;15806;53.548;9.964;2023-01-26T08:13:41;6.20;99.90
28614;DHT22;15806;53.548;9.964;2023-01-26T08:15:21;6.10;99.90
28614;DHT22;15806;53.548;9.964;2023-01-26T08:17:01;6.20;99.90
28614;DHT22;15806;53.548;9.964;2023-01-26T08:18:44;6.00;99.90
28614;DHT22;15806;53.548;9.964;2023-01-26T08:20:28;6.10;99.90
28614;DHT22;15806;53.548;9.964;2023-01-26T08:22:08;6.00;99.90
28614;DHT22;15806;53.548;9.964;2023-01-26T08:23:50;6.10;99.90
28614;DHT22;15806;53.548;9.964;2023-01-26T08:25:30;6.30;99.90
28614;DHT22;15806;53.548;9.964;2023-01-26T08:27:11;6.10;99.90
28614;DHT22;15806;53.548;9.964;2023-01-26T08:28:51;6.10;99.90
28614;DHT22;15806;53.548;9.964;2023-01-26T08:30:32;6.20;99.90
28614;DHT22;15806;53.548;9.964;2023-01-26T08:32:12;6.20;99.90
28614;DHT22;15806;53.548;9.964;2023-01-26T08:33:54;6.20;99.90
28614;DHT22;15806;53.548;9.964;2023-01-26T08:35:35;6.20;99.90
28614;DHT22;15806;53.548;9.964;2023-01-26T08:37:15;6.10;99.90
28614;DHT22;15806;53.548;9.964;2023-01-26T08:38:56;6.20;99.90
28614;DHT22;15806;53.548;9.964;2023-01-26T08:40:36;6.20;99.90
28614;DHT22;15806;53.548;9.964;2023-01-26T08:42:17;6.20;99.90
28614;DHT22;15806;53.548;9.964;2023-01-26T08:43:58;6.30;99.90
28614;DHT22;15806;53.548;9.964;2023-01-26T08:45:38;6.30;99.90
28614;DHT22;15806;53.548;9.964;2023-01-26T08:47:19;6.20;99.90
28614;DHT22;15806;53.548;9.964;2023-01-26T08:48:59;6.30;99.90
28614;DHT22;15806;53.548;9.964;2023-01-26T08:50:40;6.40;99.90
28614;DHT22;15806;53.548;9.964;2023-01-26T08:52:20;6.30;99.90
28614;DHT22;15806;53.548;9.964;2023-01-26T08:54:03;6.30;99.90
28614;DHT22;15806;53.548;9.964;2023-01-26T08:55:44;6.40;99.90
28614;DHT22;15806;53.548;9.964;2023-01-26T08:57:24;6.50;99.90
28614;DHT22;15806;53.548;9.964;2023-01-26T08:59:05;6.50;99.90
28614;DHT22;15806;53.548;9.964;2023-01-26T09:00:45;6.40;99.90
28614;DHT22;15806;53.548;9.964;2023-01-26T09:02:26;6.40;99.90
28614;DHT22;15806;53.548;9.964;2023-01-26T09:04:06;6.50;99.90
28614;DHT22;15806;53.548;9.964;2023-01-26T09:05:47;6.50;99.90
28614;DHT22;15806;53.548;9.964;2023-01-26T09:07:28;6.50;99.90
28614;DHT22;15806;53.548;9.964;2023-01-26T09:09:08;6.60;99.90
28614;DHT22;15806;53.548;9.964;2023-01-26T09:10:49;6.50;99.90
28614;DHT22;15806;53.548;9.964;2023-01-26T09:12:30;6.40;99.90
28614;DHT22;15806;53.548;9.964;2023-01-26T09:14:10;6.40;99.90
28614;DHT22;15806;53.548;9.964;2023-01-26T09:15:51;6.40;99.90
28614;DHT22;15806;53.548;9.964;2023-01-26T09:17:31;6.70;99.90
28614;DHT22;15806;53.548;9.964;2023-01-26T09:19:12;6.70;99.90
28614;DHT22;15806;53.548;9.964;2023-01-26T09:20:52;6.70;99.90
28614;DHT22;15806;53.548;9.964;2023-01-26T09:22:33;6.70;99.90
28614;DHT22;15806;53.548;9.964;2023-01-26T09:24:13;6.70;99.90
28614;DHT22;15806;53.548;9.964;2023-01-26T09:25:54;6.60;99.90
28614;DHT22;15806;53.548;9.964;2023-01-26T09:27:35;6.70;99.90
28614;DHT22;15806;53.548;9.964;2023-01-26T09:29:17;6.80;99.90
28614;DHT22;15806;53.548;9.964;2023-01-26T09:31:01;6.70;99.90
28614;DHT22;15806;53.548;9.964;2023-01-26T09:32:42;6.70;99.90
28614;DHT22;15806;53.548;9.964;2023-01-26T09:34:22;6.60;99.90
28614;DHT22;15806;53.548;9.964;2023-01-26T09:36:05;6.60;99.90
28614;DHT22;15806;53.548;9.964;2023-01-26T09:37:46;6.80;99.90
28614;DHT22;15806;53.548;9.964;2023-01-26T09:39:27;6.60;99.90
28614;DHT22;15806;53.548;9.964;2023-01-26T09:45:38;6.80;99.90
28614;DHT22;15806;53.548;9.964;2023-01-26T09:53:23;6.90;99.90
28614;DHT22;15806;53.548;9.964;2023-01-26T09:55:12;6.80;99.90
28614;DHT22;15806;53.548;9.964;2023-01-26T09:56:55;6.80;99.90
28614;DHT22;15806;53.548;9.964;2023-01-26T09:58:39;6.90;99.90
28614;DHT22;15806;53.548;9.964;2023-01-26T10:00:25;6.80;99.90
28614;DHT22;15806;53.548;9.964;2023-01-26T10:07:29;6.70;99.90
28614;DHT22;15806;53.548;9.964;2023-01-26T10:09:25;6.90;99.90
28614;DHT22;15806;53.548;9.964;2023-01-26T10:11:31;6.80;99.90
28614;DHT22;15806;53.548;9.964;2023-01-26T10:13:15;6.90;99.90
28614;DHT22;15806;53.548;9.964;2023-01-26T10:16:45;7.00;99.90
28614;DHT22;15806;53.548;9.964;2023-01-26T10:20:46;6.90;99.90
28614;DHT22;15806;53.548;9.964;2023-01-26T10:22:46;7.00;99.90
28614;DHT22;15806;53.548;9.964;2023-01-26T10:24:28;7.00;99.90
28614;DHT22;15806;53.548;9.964;2023-01-26T10:26:14;6.80;99.90
28614;DHT22;15806;53.548;9.964;2023-01-26T10:27:55;7.00;99.90
28614;DHT22;15806;53.548;9.964;2023-01-26T10:29:36;6.90;99.90
28614;DHT22;15806;53.548;9.964;2023-01-26T10:31:20;6.90;99.90
28614;DHT22;15806;53.548;9.964;2023-01-26T10:33:00;7.00;99.90
28614;DHT22;15806;53.548;9.964;2023-01-26T10:34:41;7.00;99.90
28614;DHT22;15806;53.548;9.964;2023-01-26T10:36:23;6.90;99.90
28614;DHT22;15806;53.548;9.964;2023-01-26T10:40:13;7.10;99.90
28614;DHT22;15806;53.548;9.964;2023-01-26T10:42:02;7.20;99.90
28614;DHT22;15806;53.548;9.964;2023-01-26T10:45:32;7.20;99.90
28614;DHT22;15806;53.548;9.964;2023-01-26T10:47:14;7.20;99.90
28614;DHT22;15806;53.548;9.964;2023-01-26T10:48:57;7.20;99.90
28614;DHT22;15806;53.548;9.964;2023-01-26T10:50:38;7.10;99.90
28614;DHT22;15806;53.548;9.964;2023-01-26T10:52:23;7.30;99.90
28614;DHT22;15806;53.548;9.964;2023-01-26T10:54:26;7.20;99.90
28614;DHT22;15806;53.548;9.964;2023-01-26T10:56:14;7.40;99.90
28614;DHT22;15806;53.548;9.964;2023-01-26T10:57:55;7.50;99.90
28614;DHT22;15806;53.548;9.964;2023-01-26T11:01:54;7.70;99.90
28614;DHT22;15806;53.548;9.964;2023-01-26T11:03:35;7.80;99.90
28614;DHT22;15806;53.548;9.964;2023-01-26T11:05:21;7.60;99.90
28614;DHT22;15806;53.548;9.964;2023-01-26T11:07:31;7.70;99.90
28614;DHT22;15806;53.548;9.964;2023-01-26T11:09:21;7.90;99.90
28614;DHT22;15806;53.548;9.964;2023-01-26T11:11:05;7.90;99.90
28614;DHT22;15806;53.548;9.964;2023-01-26T11:12:46;7.80;99.90
28614;DHT22;15806;53.548;9.964;2023-01-26T11:14:29;8.00;99.90
28614;DHT22;15806;53.548;9.964;2023-01-26T11:16:19;8.00;99.90
28614;DHT22;15806;53.548;9.964;2023-01-26T11:18:10;8.00;99.90
28614;DHT22;15806;53.548;9.964;2023-01-26T11:21:58;7.90;99.90
28614;DHT22;15806;53.548;9.964;2023-01-26T11:24:03;8.10;99.90
28614;DHT22;15806;53.548;9.964;2023-01-26T11:26:07;8.20;99.90
28614;DHT22;15806;53.548;9.964;2023-01-26T11:28:12;8.30;99.90
28614;DHT22;15806;53.548;9.964;2023-01-26T11:30:40;8.30;99.90
28614;DHT22;15806;53.548;9.964;2023-01-26T11:32:33;8.30;99.90